Sunday, July 22, 2018, 4:27 PM GMT
Back to Local

CYZX, Greenwood, N. S.

Location: , , Canada Lat: 44.983
Local Time: 4:27 PM GMT (16:27 GMT) Lon: -64.917
Time Zone: GMT Elev: 91 ft

Show me the last for .
Show Coded

Time T Td Feel RH Dir Speed Gust Alt SLP Vis Weather Sky Remarks
2018-07-22 16:00 79 72 83 78 210° 12 17 30.27 30.27 15 BKN022 OVC050 None
2018-07-22 15:18 79 72 83 78 200° 7 - 30.27 30.27 15 BKN020 BKN050 None
2018-07-22 15:00 77 73 82 88 210° 9 - 30.28 30.28 15 BKN014 OVC018 None
2018-07-22 14:00 72 70 76 94 110° 2 - 30.28 30.28 15 BKN012 BKN060 None
2018-07-22 13:33 68 68 - 100 30° 6 - 30.28 30.28 12 OVC012 None
2018-07-22 13:22 68 66 - 93 50° 6 - 30.28 30.28 3 -SHRA BR OVC012 None
2018-07-22 13:00 68 66 - 93 70° 5 - 30.28 30.28 1 -SHRA BR BKN012 OVC019 None
2018-07-22 12:19 68 66 - 93 60° 5 - 30.26 30.27 3 -SHRA BR BKN014 OVC020 None
2018-07-22 12:00 68 64 - 88 70° 5 - 30.26 30.26 15 BKN014 OVC020 None
2018-07-22 11:36 66 64 - 93 80° 3 - 30.26 30.26 15 OVC014 None
2018-07-22 11:00 64 63 - 93 90° 5 - 30.23 30.23 15 BKN022 None
2018-07-22 10:40 64 63 - 93 40° 3 - 30.25 30.25 15 BKN022 None
2018-07-22 10:00 64 63 - 93 40° 3 - 30.24 30.24 15 BKN030 BKN250 None
2018-07-22 09:00 61 61 - 100 30° 3 - 30.24 30.24 5 BR FEW035 BKN250 None
2018-07-22 08:30 61 61 - 100 40° 2 - 30.24 30.24 2 BR FEW003 SCT060 None
2018-07-22 08:00 59 59 - 100 - Calm - 30.24 30.24 2 BR FEW003 None
2018-07-22 07:35 61 59 - 93 - Calm - 30.23 30.23 1 BR SCT003 None
2018-07-22 07:00 63 63 - 100 - Calm - 30.24 30.24 3 BR FEW011 None
2018-07-22 06:00 64 64 - 100 - Calm - 30.23 30.23 15 CLR None
2018-07-22 05:00 66 64 - 93 280° 2 - 30.22 30.22 15 FEW030 None
2018-07-22 04:00 70 68 - 94 270° 5 - 30.22 30.22 15 FEW014 BKN030 None
2018-07-22 03:00 70 68 - 94 190° 2 - 30.20 30.20 15 SCT030 None
2018-07-22 02:00 72 68 76 88 270° 3 - 30.19 30.19 15 SCT040 None
2018-07-22 01:00 72 68 76 88 280° 2 - 30.17 30.17 15 FEW050 None
2018-07-22 00:00 73 70 77 88 - Calm - 30.15 30.15 15 FEW017 BKN045 None
2018-07-21 23:19 75 70 79 83 360° 3 - 30.15 30.15 15 SCT017 BKN030 None
2018-07-21 23:00 75 70 79 83 10° 6 - 30.14 30.14 15 BKN023 None
2018-07-21 22:00 75 72 79 88 320° 7 - 30.14 30.14 15 BKN024 None
2018-07-21 21:43 77 72 81 83 340° 5 - 30.13 30.14 15 BKN024 None
2018-07-21 21:07 75 70 79 83 80° 6 - 30.13 30.13 15 -SHRA BKN024 None
2018-07-21 21:00 77 70 81 78 40° 5 - 30.13 30.13 15 BKN024 None
2018-07-21 20:00 77 70 81 78 20° 10 - 30.13 30.13 15 BKN024 None
2018-07-21 19:00 77 72 81 83 80° 8 - 30.12 30.12 15 BKN024 BKN035 None
2018-07-21 18:23 73 70 77 88 30° 7 - 30.14 30.14 15 -SHRA BKN016 None
2018-07-21 18:00 73 70 77 88 30° 7 - 30.14 30.14 15 -SHRA BKN016 None
2018-07-21 17:36 70 70 - 100 20° 7 - 30.15 30.15 4 -SHRA BR BKN016 None
2018-07-21 17:19 70 68 - 94 40° 7 - 30.15 30.15 2 -SHRA BR OVC016 None
2018-07-21 17:00 70 68 - 94 90° 6 - 30.15 30.15 2 -SHRA BR OVC016 None
2018-07-21 16:49 70 66 - 88 90° 7 - 30.15 30.15 2 -SHRA HZ OVC016 None
2018-07-21 16:34 72 66 76 83 70° 9 - 30.15 30.15 15 -DZ BKN016 None

Support USWX by starting your Amazon purchase here.